Time;durP1;ratioP1;P1;durP2;ratioP2;P2;SDS_P1;SDS_P2;PMS_P1;PMS_P2;Temp;Humidity;BMP_temperature;BMP_pressure;BME280_temperature;BME280_humidity;BME280_pressure;Samples;Min_cycle;Max_cycle;Signal;HPM_P1;HPM_P2
2022/07/26 00:00:51;;;;;;;13.45;2.00;;;;;;;;;;5031728;28;20033;-68
2022/07/26 00:03:16;;;;;;;12.57;2.50;;;;;;;;;;5030623;28;20025;-67
2022/07/26 00:05:42;;;;;;;9.88;1.75;;;;;;;;;;5030756;28;20025;-67
2022/07/26 00:08:10;;;;;;;13.45;2.00;;;;;;;;;;5031210;28;20076;-67
2022/07/26 00:10:43;;;;;;;11.90;2.10;;;;;;;;;;5031732;28;20025;-67
2022/07/26 00:13:09;;;;;;;9.48;2.63;;;;;;;;;;5031376;28;20048;-67
2022/07/26 00:15:35;;;;;;;13.48;2.00;;;;;;;;;;5034621;28;20021;-68
2022/07/26 00:18:01;;;;;;;9.90;1.70;;;;;;;;;;5030854;28;20021;-67
2022/07/26 00:20:26;;;;;;;12.65;1.90;;;;;;;;;;5029647;28;20116;-68
2022/07/26 00:22:51;;;;;;;12.70;1.77;;;;;;;;;;5030939;28;20031;-67
2022/07/26 00:25:16;;;;;;;9.32;1.80;;;;;;;;;;5030170;28;20033;-68
2022/07/26 00:27:42;;;;;;;10.75;2.83;;;;;;;;;;5031290;28;20538;-67
2022/07/26 00:30:08;;;;;;;12.05;2.15;;;;;;;;;;5030564;28;20029;-68
2022/07/26 00:32:33;;;;;;;11.18;2.00;;;;;;;;;;5030432;28;20029;-67
2022/07/26 00:34:58;;;;;;;12.43;1.98;;;;;;;;;;5030075;28;20060;-67
2022/07/26 00:37:24;;;;;;;7.72;1.90;;;;;;;;;;5029781;28;20457;-68
2022/07/26 00:39:49;;;;;;;9.10;2.10;;;;;;;;;;5032082;28;20087;-68
2022/07/26 00:42:15;;;;;;;12.75;2.28;;;;;;;;;;5031239;28;20057;-67
2022/07/26 00:44:41;;;;;;;10.27;2.22;;;;;;;;;;5029748;28;20501;-68
2022/07/26 00:47:07;;;;;;;8.23;1.75;;;;;;;;;;5030240;28;20537;-67
2022/07/26 00:49:32;;;;;;;9.93;1.88;;;;;;;;;;5030020;28;20100;-67
2022/07/26 00:51:57;;;;;;;9.27;1.90;;;;;;;;;;5029176;28;20037;-67
2022/07/26 00:54:22;;;;;;;10.25;2.42;;;;;;;;;;5030513;28;20463;-67
2022/07/26 00:56:48;;;;;;;12.65;2.35;;;;;;;;;;5030984;28;20033;-67
2022/07/26 00:59:13;;;;;;;8.95;2.05;;;;;;;;;;5029174;28;20041;-68
2022/07/26 01:01:39;;;;;;;6.60;1.60;;;;;;;;;;5029461;28;20147;-67
2022/07/26 01:04:04;;;;;;;11.20;2.58;;;;;;;;;;5030054;28;20026;-68
2022/07/26 01:06:29;;;;;;;11.00;2.13;;;;;;;;;;5028077;28;20026;-68
2022/07/26 01:08:54;;;;;;;10.90;2.22;;;;;;;;;;5030010;28;20025;-68
2022/07/26 01:11:20;;;;;;;12.15;2.33;;;;;;;;;;5034098;28;20037;-67
2022/07/26 01:13:49;;;;;;;11.68;2.00;;;;;;;;;;5033035;28;20034;-67
2022/07/26 01:16:14;;;;;;;10.45;2.20;;;;;;;;;;5030669;28;20099;-67
2022/07/26 01:18:39;;;;;;;10.77;2.47;;;;;;;;;;5029744;28;20049;-67
2022/07/26 01:21:06;;;;;;;10.95;2.70;;;;;;;;;;5030874;28;20037;-68
2022/07/26 01:23:32;;;;;;;9.32;2.00;;;;;;;;;;5028821;28;20048;-68
2022/07/26 01:25:57;;;;;;;12.43;2.30;;;;;;;;;;5028923;28;20025;-68
2022/07/26 01:28:23;;;;;;;10.43;2.30;;;;;;;;;;5028939;28;20037;-68
2022/07/26 01:30:48;;;;;;;9.68;2.08;;;;;;;;;;5031781;28;20443;-67
2022/07/26 01:33:13;;;;;;;13.68;2.50;;;;;;;;;;5032875;28;20394;-68
2022/07/26 01:35:39;;;;;;;17.08;2.28;;;;;;;;;;5034492;28;20421;-68
2022/07/26 01:38:04;;;;;;;13.52;2.47;;;;;;;;;;5033881;28;20060;-68
2022/07/26 01:40:29;;;;;;;9.23;2.10;;;;;;;;;;5033848;28;20091;-68
2022/07/26 01:42:54;;;;;;;10.38;1.90;;;;;;;;;;5033743;28;20061;-68
2022/07/26 01:45:19;;;;;;;13.05;2.60;;;;;;;;;;5033751;28;20018;-68
2022/07/26 01:47:48;;;;;;;12.98;2.28;;;;;;;;;;5032652;28;20083;-67
2022/07/26 01:50:14;;;;;;;12.82;2.45;;;;;;;;;;5034769;28;20027;-68
2022/07/26 01:52:39;;;;;;;10.48;2.78;;;;;;;;;;5033501;28;20034;-68
2022/07/26 01:55:04;;;;;;;9.48;2.40;;;;;;;;;;5032774;28;20741;-68
2022/07/26 01:57:30;;;;;;;13.68;2.40;;;;;;;;;;5020238;28;20089;-67
2022/07/26 01:59:55;;;;;;;11.82;2.20;;;;;;;;;;5033871;28;20087;-68
2022/07/26 02:02:20;;;;;;;12.32;2.85;;;;;;;;;;5032631;28;20026;-67
2022/07/26 02:05:03;;;;;;;16.40;3.25;;;;;;;;;;5032647;28;20033;-68
2022/07/26 02:07:32;;;;;;;16.33;2.75;;;;;;;;;;5032082;28;20034;-67
2022/07/26 02:09:58;;;;;;;11.98;2.85;;;;;;;;;;5032047;28;20072;-67
2022/07/26 02:12:23;;;;;;;14.27;2.83;;;;;;;;;;5033811;28;20399;-68
2022/07/26 02:14:50;;;;;;;12.35;2.70;;;;;;;;;;5032884;28;20045;-68
2022/07/26 02:17:15;;;;;;;15.68;3.10;;;;;;;;;;5033672;28;20049;-67
2022/07/26 02:19:40;;;;;;;17.45;2.72;;;;;;;;;;5031047;28;20419;-68
2022/07/26 02:22:06;;;;;;;13.98;2.80;;;;;;;;;;5033379;28;20029;-67
2022/07/26 02:24:31;;;;;;;12.52;2.60;;;;;;;;;;5031849;28;20044;-68
2022/07/26 02:26:58;;;;;;;12.65;2.92;;;;;;;;;;5033246;28;20026;-67
2022/07/26 02:29:23;;;;;;;14.00;2.90;;;;;;;;;;5032907;28;20522;-67
2022/07/26 02:31:49;;;;;;;11.43;2.75;;;;;;;;;;5033514;28;20076;-67
2022/07/26 02:34:15;;;;;;;13.07;3.03;;;;;;;;;;5031804;28;20040;-67
2022/07/26 02:36:40;;;;;;;17.02;3.25;;;;;;;;;;5033058;28;20033;-67
2022/07/26 02:39:05;;;;;;;13.20;2.42;;;;;;;;;;5030966;28;20033;-67
2022/07/26 02:41:30;;;;;;;14.65;2.60;;;;;;;;;;5032931;28;20037;-67
2022/07/26 02:43:56;;;;;;;14.48;2.80;;;;;;;;;;5030667;28;20604;-68
2022/07/26 02:46:22;;;;;;;13.40;2.65;;;;;;;;;;5032916;28;20499;-68
2022/07/26 02:48:55;;;;;;;14.27;3.05;;;;;;;;;;5031743;28;20673;-67
2022/07/26 02:51:20;;;;;;;12.40;2.88;;;;;;;;;;5032620;28;20159;-67
2022/07/26 02:53:45;;;;;;;13.77;2.60;;;;;;;;;;5032266;28;20721;-67
2022/07/26 02:56:10;;;;;;;12.45;2.90;;;;;;;;;;5032418;28;20025;-67
2022/07/26 02:58:36;;;;;;;15.30;2.75;;;;;;;;;;5031908;28;20135;-67
2022/07/26 03:01:02;;;;;;;12.23;2.67;;;;;;;;;;5031742;28;20052;-67
2022/07/26 03:03:27;;;;;;;14.52;2.53;;;;;;;;;;5031901;28;20025;-67
2022/07/26 03:05:52;;;;;;;11.15;2.90;;;;;;;;;;5031649;28;20029;-67
2022/07/26 03:08:18;;;;;;;12.80;2.70;;;;;;;;;;5032472;28;20037;-67
2022/07/26 03:10:43;;;;;;;11.27;2.83;;;;;;;;;;5031869;28;20025;-68
2022/07/26 03:13:09;;;;;;;13.70;2.45;;;;;;;;;;5032382;28;20036;-68
2022/07/26 03:15:34;;;;;;;14.82;3.03;;;;;;;;;;5031742;28;20068;-67
2022/07/26 03:18:00;;;;;;;19.02;3.00;;;;;;;;;;5034456;28;20492;-67
2022/07/26 03:20:25;;;;;;;15.63;2.95;;;;;;;;;;5030720;28;20200;-68
2022/07/26 03:22:50;;;;;;;10.38;2.65;;;;;;;;;;5032176;28;20385;-67
2022/07/26 03:25:16;;;;;;;15.95;3.95;;;;;;;;;;5031285;28;20100;-68
2022/07/26 03:27:41;;;;;;;13.48;2.72;;;;;;;;;;5033808;28;20108;-68
2022/07/26 03:30:07;;;;;;;12.45;2.85;;;;;;;;;;5032093;28;20457;-67
2022/07/26 03:32:32;;;;;;;14.20;2.88;;;;;;;;;;5031364;28;20029;-67
2022/07/26 03:34:57;;;;;;;12.75;2.80;;;;;;;;;;5031616;28;20037;-67
2022/07/26 03:37:23;;;;;;;19.13;3.30;;;;;;;;;;5031534;28;20040;-67
2022/07/26 03:39:48;;;;;;;14.05;3.17;;;;;;;;;;5031385;28;20025;-67
2022/07/26 03:42:13;;;;;;;12.25;2.67;;;;;;;;;;5031089;28;20044;-67
2022/07/26 03:44:39;;;;;;;15.75;2.95;;;;;;;;;;5031521;28;20040;-67
2022/07/26 03:47:04;;;;;;;13.77;3.47;;;;;;;;;;5031914;28;20026;-67
2022/07/26 03:49:29;;;;;;;16.95;3.45;;;;;;;;;;5031549;28;20060;-67
2022/07/26 03:51:55;;;;;;;12.75;2.95;;;;;;;;;;5031371;28;20040;-67
2022/07/26 03:54:21;;;;;;;14.15;3.00;;;;;;;;;;5031304;28;20040;-67
2022/07/26 03:56:46;;;;;;;17.38;3.20;;;;;;;;;;5030759;28;20033;-67
2022/07/26 03:59:12;;;;;;;16.85;3.22;;;;;;;;;;5031320;28;20026;-67
2022/07/26 04:01:40;;;;;;;15.52;3.67;;;;;;;;;;5030093;28;20033;-67
2022/07/26 04:04:06;;;;;;;15.50;3.47;;;;;;;;;;5031131;28;20045;-67
2022/07/26 04:06:31;;;;;;;15.35;3.30;;;;;;;;;;5031337;28;20029;-67
2022/07/26 04:08:56;;;;;;;16.33;3.40;;;;;;;;;;5031382;28;20029;-67
2022/07/26 04:11:22;;;;;;;15.10;4.05;;;;;;;;;;5030397;28;20429;-67
2022/07/26 04:13:47;;;;;;;17.13;3.25;;;;;;;;;;5031043;28;20146;-67
2022/07/26 04:16:13;;;;;;;13.43;3.30;;;;;;;;;;5033024;28;20025;-67
2022/07/26 04:18:38;;;;;;;16.40;3.85;;;;;;;;;;5030845;28;20556;-67
2022/07/26 04:21:03;;;;;;;17.80;3.35;;;;;;;;;;5031090;28;20033;-67
2022/07/26 04:23:29;;;;;;;18.58;4.07;;;;;;;;;;5029904;28;20025;-66
2022/07/26 04:25:54;;;;;;;18.13;3.53;;;;;;;;;;5031251;28;20044;-67
2022/07/26 04:28:19;;;;;;;12.98;3.33;;;;;;;;;;5030348;28;20029;-67
2022/07/26 04:30:44;;;;;;;16.65;3.72;;;;;;;;;;5032109;28;20033;-67
2022/07/26 04:33:10;;;;;;;16.50;3.97;;;;;;;;;;5031227;28;20025;-67
2022/07/26 04:35:35;;;;;;;21.13;3.40;;;;;;;;;;5030478;28;20033;-67
2022/07/26 04:38:03;;;;;;;16.73;3.50;;;;;;;;;;5032499;28;20390;-67
2022/07/26 04:40:32;;;;;;;13.88;3.20;;;;;;;;;;5017591;28;20152;-67
2022/07/26 04:42:58;;;;;;;15.65;3.10;;;;;;;;;;5030228;28;20029;-67
2022/07/26 04:45:23;;;;;;;12.25;2.88;;;;;;;;;;5031274;28;20025;-67
2022/07/26 04:47:49;;;;;;;15.07;3.35;;;;;;;;;;5029080;28;20030;-67
2022/07/26 04:50:14;;;;;;;18.52;3.20;;;;;;;;;;5031721;28;20060;-68
2022/07/26 04:52:40;;;;;;;14.07;3.05;;;;;;;;;;5030244;28;20586;-67
2022/07/26 04:55:06;;;;;;;14.38;3.90;;;;;;;;;;5029442;28;20033;-67
2022/07/26 04:57:31;;;;;;;13.57;3.22;;;;;;;;;;5031207;28;20025;-67
2022/07/26 04:59:56;;;;;;;16.58;3.40;;;;;;;;;;5030171;28;20466;-67
2022/07/26 05:02:22;;;;;;;16.65;3.85;;;;;;;;;;5029534;28;20100;-67
2022/07/26 05:04:47;;;;;;;13.23;3.25;;;;;;;;;;5030806;28;20026;-68
2022/07/26 05:07:12;;;;;;;15.77;3.80;;;;;;;;;;5033581;28;20080;-67
2022/07/26 05:09:38;;;;;;;17.60;4.47;;;;;;;;;;5032514;28;20101;-68
2022/07/26 05:12:03;;;;;;;14.15;3.15;;;;;;;;;;5035025;28;20036;-68
2022/07/26 05:14:28;;;;;;;18.00;4.07;;;;;;;;;;5035663;28;20029;-66
2022/07/26 05:16:54;;;;;;;17.70;4.28;;;;;;;;;;5033021;28;20025;-67
2022/07/26 05:19:19;;;;;;;13.60;3.33;;;;;;;;;;5034568;28;20025;-67
2022/07/26 05:21:44;;;;;;;13.55;3.25;;;;;;;;;;5036079;28;20022;-68
2022/07/26 05:24:10;;;;;;;13.15;3.50;;;;;;;;;;5033966;28;20025;-67
2022/07/26 05:26:35;;;;;;;13.48;3.17;;;;;;;;;;5033274;28;20025;-68
2022/07/26 05:29:00;;;;;;;13.80;3.70;;;;;;;;;;5031997;28;20021;-67
2022/07/26 05:31:25;;;;;;;17.42;4.38;;;;;;;;;;5035751;28;20057;-68
2022/07/26 05:33:51;;;;;;;16.55;3.92;;;;;;;;;;5034213;28;20088;-68
2022/07/26 05:36:16;;;;;;;16.67;4.90;;;;;;;;;;5033133;28;20448;-68
2022/07/26 05:38:41;;;;;;;15.25;4.60;;;;;;;;;;5033815;28;20045;-68
2022/07/26 05:41:07;;;;;;;19.30;5.07;;;;;;;;;;5034577;28;20382;-68
2022/07/26 05:43:32;;;;;;;19.35;5.55;;;;;;;;;;5033482;28;20474;-68
2022/07/26 05:45:57;;;;;;;22.25;5.55;;;;;;;;;;5033194;28;20025;-68
2022/07/26 05:48:23;;;;;;;16.65;5.70;;;;;;;;;;5033880;28;20025;-68
2022/07/26 05:50:48;;;;;;;15.18;5.30;;;;;;;;;;5034120;28;20253;-68
2022/07/26 05:53:14;;;;;;;14.65;5.03;;;;;;;;;;5033506;28;20044;-67
2022/07/26 05:55:39;;;;;;;18.83;5.25;;;;;;;;;;5033149;28;20033;-68
2022/07/26 05:58:04;;;;;;;16.23;5.72;;;;;;;;;;5033436;28;20044;-67
2022/07/26 06:00:29;;;;;;;16.45;5.55;;;;;;;;;;5034906;28;20029;-67
2022/07/26 06:02:55;;;;;;;13.02;5.60;;;;;;;;;;5033130;28;20040;-67
2022/07/26 06:05:20;;;;;;;17.00;6.57;;;;;;;;;;5032467;28;20087;-66
2022/07/26 06:07:45;;;;;;;20.90;7.30;;;;;;;;;;5033688;28;20025;-67
2022/07/26 06:10:10;;;;;;;18.50;7.45;;;;;;;;;;5035037;28;20025;-67
2022/07/26 06:12:36;;;;;;;17.52;6.82;;;;;;;;;;5033484;28;20096;-67
2022/07/26 06:15:01;;;;;;;14.43;6.07;;;;;;;;;;5032669;28;20025;-67
2022/07/26 06:17:28;;;;;;;11.45;4.70;;;;;;;;;;5033793;28;20378;-67
2022/07/26 06:19:54;;;;;;;12.63;4.80;;;;;;;;;;5031143;28;20079;-65
2022/07/26 06:22:19;;;;;;;13.93;4.68;;;;;;;;;;5034785;28;20014;-66
2022/07/26 06:24:44;;;;;;;9.52;4.00;;;;;;;;;;5033170;28;20040;-66
2022/07/26 06:27:10;;;;;;;10.80;3.78;;;;;;;;;;5032721;28;20033;-67
2022/07/26 06:29:35;;;;;;;12.85;4.15;;;;;;;;;;5033018;28;20029;-66
2022/07/26 06:32:00;;;;;;;7.53;2.75;;;;;;;;;;5033773;28;20397;-66
2022/07/26 06:34:26;;;;;;;9.57;3.50;;;;;;;;;;5033122;28;20504;-66
2022/07/26 06:36:51;;;;;;;7.10;2.50;;;;;;;;;;5031561;28;20025;-67
2022/07/26 06:39:16;;;;;;;8.30;2.70;;;;;;;;;;5032848;28;20025;-66
2022/07/26 06:41:41;;;;;;;7.78;2.17;;;;;;;;;;5033418;28;20040;-66
2022/07/26 06:44:06;;;;;;;9.30;2.20;;;;;;;;;;5032662;28;20026;-66
2022/07/26 06:46:32;;;;;;;6.55;2.03;;;;;;;;;;5031835;28;20029;-66
2022/07/26 06:48:57;;;;;;;10.40;1.90;;;;;;;;;;5031771;28;20034;-67
2022/07/26 06:51:22;;;;;;;6.65;1.58;;;;;;;;;;5034133;28;20045;-66
2022/07/26 06:53:48;;;;;;;8.18;2.10;;;;;;;;;;5032781;28;20088;-67
2022/07/26 06:56:13;;;;;;;6.65;1.70;;;;;;;;;;5031400;28;20100;-66
2022/07/26 06:58:39;;;;;;;5.75;1.52;;;;;;;;;;5030882;28;20029;-66
2022/07/26 07:01:05;;;;;;;8.77;1.83;;;;;;;;;;5032433;28;20018;-67
2022/07/26 07:03:30;;;;;;;6.43;1.70;;;;;;;;;;5031602;28;20091;-66
2022/07/26 07:05:55;;;;;;;5.85;1.90;;;;;;;;;;5032662;28;20382;-67
2022/07/26 07:08:21;;;;;;;8.88;1.73;;;;;;;;;;5031175;28;20022;-67
2022/07/26 07:10:47;;;;;;;7.28;1.60;;;;;;;;;;5032555;28;20021;-67
2022/07/26 07:13:12;;;;;;;7.45;1.65;;;;;;;;;;5031544;28;20090;-66
2022/07/26 07:15:37;;;;;;;6.03;1.50;;;;;;;;;;5031790;28;20052;-67
2022/07/26 07:18:03;;;;;;;7.32;1.75;;;;;;;;;;5032330;28;20389;-67
2022/07/26 07:20:28;;;;;;;4.28;1.30;;;;;;;;;;5031211;28;20033;-68
2022/07/26 07:22:53;;;;;;;5.78;1.42;;;;;;;;;;5032371;28;20021;-67
2022/07/26 07:25:18;;;;;;;7.38;2.00;;;;;;;;;;5031717;28;20027;-67
2022/07/26 07:27:44;;;;;;;6.78;1.35;;;;;;;;;;5031701;28;20413;-67
2022/07/26 07:30:09;;;;;;;8.15;1.48;;;;;;;;;;5029121;28;20025;-67
2022/07/26 07:32:35;;;;;;;5.30;1.20;;;;;;;;;;5032339;28;20079;-67
2022/07/26 07:35:00;;;;;;;10.77;1.60;;;;;;;;;;5031733;28;20033;-67
2022/07/26 07:37:25;;;;;;;9.80;2.00;;;;;;;;;;5032090;28;20477;-66
2022/07/26 07:39:50;;;;;;;7.43;1.40;;;;;;;;;;5030686;28;20470;-67
2022/07/26 07:42:16;;;;;;;4.80;1.42;;;;;;;;;;5031230;28;20017;-66
2022/07/26 07:44:41;;;;;;;4.65;1.70;;;;;;;;;;5033817;28;20025;-66
2022/07/26 07:47:09;;;;;;;5.60;1.40;;;;;;;;;;5031919;28;20044;-66
2022/07/26 07:49:35;;;;;;;7.72;1.40;;;;;;;;;;5031260;28;20055;-67
2022/07/26 07:52:00;;;;;;;6.40;1.30;;;;;;;;;;5031553;28;20037;-67
2022/07/26 07:54:25;;;;;;;3.50;1.20;;;;;;;;;;5031235;28;20053;-66
2022/07/26 07:56:51;;;;;;;5.88;1.10;;;;;;;;;;5031938;28;20042;-67
2022/07/26 07:59:17;;;;;;;3.55;0.95;;;;;;;;;;5031162;28;20040;-66
2022/07/26 08:01:42;;;;;;;7.32;1.13;;;;;;;;;;5031463;28;20029;-66
2022/07/26 08:04:07;;;;;;;5.97;1.00;;;;;;;;;;5031192;28;20038;-66
2022/07/26 08:06:33;;;;;;;5.05;0.90;;;;;;;;;;5031324;28;20017;-67
2022/07/26 08:08:58;;;;;;;6.35;1.10;;;;;;;;;;5031262;28;20111;-66
2022/07/26 08:11:23;;;;;;;5.20;0.98;;;;;;;;;;5031708;28;20025;-66
2022/07/26 08:13:48;;;;;;;6.72;1.00;;;;;;;;;;5031256;28;20070;-67
2022/07/26 08:16:14;;;;;;;4.85;1.10;;;;;;;;;;5031088;28;20421;-67
2022/07/26 08:18:39;;;;;;;5.35;1.30;;;;;;;;;;5030757;28;20033;-66
2022/07/26 08:21:04;;;;;;;6.13;1.08;;;;;;;;;;5031262;28;20017;-67
2022/07/26 08:23:29;;;;;;;6.80;1.10;;;;;;;;;;5031094;28;20032;-66
2022/07/26 08:25:56;;;;;;;5.57;1.20;;;;;;;;;;5028765;28;20025;-66
2022/07/26 08:28:21;;;;;;;6.32;1.20;;;;;;;;;;5030935;28;20033;-67
2022/07/26 08:30:47;;;;;;;9.52;0.80;;;;;;;;;;5033009;28;20031;-67
2022/07/26 08:33:12;;;;;;;6.13;0.90;;;;;;;;;;5030253;28;20502;-67
2022/07/26 08:35:37;;;;;;;5.05;0.77;;;;;;;;;;5031227;28;20097;-66
2022/07/26 08:38:02;;;;;;;6.18;0.93;;;;;;;;;;5030721;28;20038;-67
2022/07/26 08:40:28;;;;;;;4.25;0.70;;;;;;;;;;5030870;28;20025;-66
2022/07/26 08:42:54;;;;;;;2.53;0.63;;;;;;;;;;5033269;28;20101;-66
2022/07/26 08:45:20;;;;;;;6.90;1.30;;;;;;;;;;5035434;28;20438;-66
2022/07/26 08:47:46;;;;;;;4.88;0.90;;;;;;;;;;5033355;28;20021;-67
2022/07/26 08:50:11;;;;;;;7.03;1.10;;;;;;;;;;5038121;28;20030;-67
2022/07/26 08:52:40;;;;;;;7.88;1.13;;;;;;;;;;5034401;28;20029;-67
2022/07/26 08:55:05;;;;;;;3.33;0.73;;;;;;;;;;5034892;28;20029;-66
2022/07/26 08:57:30;;;;;;;5.80;0.80;;;;;;;;;;5034825;28;20029;-67
2022/07/26 09:00:14;;;;;;;5.88;0.77;;;;;;;;;;5034534;28;20057;-67
2022/07/26 09:02:42;;;;;;;5.40;0.98;;;;;;;;;;5032021;28;20030;-66
2022/07/26 09:05:07;;;;;;;5.20;0.85;;;;;;;;;;5034792;28;20067;-66
2022/07/26 09:07:33;;;;;;;5.00;0.90;;;;;;;;;;5034540;28;20096;-66
2022/07/26 09:10:08;;;;;;;5.07;1.00;;;;;;;;;;5034782;28;20493;-66
2022/07/26 09:12:34;;;;;;;5.10;1.05;;;;;;;;;;5035152;28;20365;-67
2022/07/26 09:15:00;;;;;;;5.40;0.98;;;;;;;;;;5030513;28;20030;-68
2022/07/26 09:17:36;;;;;;;7.60;0.88;;;;;;;;;;5038388;28;20025;-67
2022/07/26 09:20:09;;;;;;;5.70;1.05;;;;;;;;;;5032888;28;20021;-67
2022/07/26 09:22:35;;;;;;;3.85;0.73;;;;;;;;;;5024524;28;20017;-66
2022/07/26 09:25:01;;;;;;;3.85;0.80;;;;;;;;;;5034247;28;20021;-67
2022/07/26 09:27:32;;;;;;;3.40;0.80;;;;;;;;;;5034325;28;20026;-66
2022/07/26 09:30:03;;;;;;;3.58;0.85;;;;;;;;;;5033993;28;20017;-67
2022/07/26 09:32:28;;;;;;;2.95;0.63;;;;;;;;;;5034315;28;20029;-68
2022/07/26 09:34:55;;;;;;;5.60;0.65;;;;;;;;;;5033491;28;20028;-67
2022/07/26 09:37:36;;;;;;;3.63;0.65;;;;;;;;;;5033672;28;20378;-67
2022/07/26 09:40:06;;;;;;;1.92;0.60;;;;;;;;;;5032959;28;20363;-67
2022/07/26 09:42:31;;;;;;;6.20;0.73;;;;;;;;;;5033964;28;20014;-67
2022/07/26 09:44:57;;;;;;;5.30;0.60;;;;;;;;;;5034156;28;20060;-67
2022/07/26 09:47:33;;;;;;;1.08;0.30;;;;;;;;;;5025270;28;20035;-67
2022/07/26 09:50:28;;;;;;;3.55;0.60;;;;;;;;;;5032558;28;20120;-67
2022/07/26 09:53:01;;;;;;;2.45;0.40;;;;;;;;;;5048130;28;20512;-67
2022/07/26 09:55:26;;;;;;;2.38;0.40;;;;;;;;;;5036404;28;20028;-67
2022/07/26 09:57:52;;;;;;;1.95;0.40;;;;;;;;;;5034252;28;20139;-67
2022/07/26 10:00:17;;;;;;;3.53;0.70;;;;;;;;;;5034343;28;20025;-68
2022/07/26 10:02:43;;;;;;;3.85;0.47;;;;;;;;;;5033807;28;20017;-67
2022/07/26 10:05:08;;;;;;;2.38;0.50;;;;;;;;;;5032216;28;20029;-67
2022/07/26 10:07:33;;;;;;;3.20;0.50;;;;;;;;;;5038278;28;20409;-67
2022/07/26 10:10:11;;;;;;;2.85;0.50;;;;;;;;;;5033369;28;20017;-67
2022/07/26 10:12:37;;;;;;;2.85;0.70;;;;;;;;;;5033295;28;20017;-66
2022/07/26 10:15:02;;;;;;;1.75;0.40;;;;;;;;;;5033559;28;20020;-67
2022/07/26 10:17:28;;;;;;;3.55;0.50;;;;;;;;;;5033512;28;20517;-67
2022/07/26 10:19:54;;;;;;;2.83;0.90;;;;;;;;;;5033477;28;20492;-68
2022/07/26 10:22:22;;;;;;;3.70;0.57;;;;;;;;;;5033634;28;20477;-67
2022/07/26 10:24:48;;;;;;;2.75;0.50;;;;;;;;;;5033152;28;20028;-67
2022/07/26 10:27:31;;;;;;;2.58;0.40;;;;;;;;;;5033419;28;20390;-67
2022/07/26 10:30:26;;;;;;;3.58;0.60;;;;;;;;;;5031516;28;20111;-67
2022/07/26 10:32:58;;;;;;;3.90;0.60;;;;;;;;;;5038285;28;20030;-67
2022/07/26 10:35:32;;;;;;;2.28;0.55;;;;;;;;;;5031985;28;20025;-67
2022/07/26 10:38:22;;;;;;;5.82;0.70;;;;;;;;;;5030326;28;20143;-66
2022/07/26 10:41:00;;;;;;;2.00;0.50;;;;;;;;;;5033002;28;20061;-67
2022/07/26 10:43:26;;;;;;;1.63;0.70;;;;;;;;;;5029448;28;20421;-66
2022/07/26 10:46:10;;;;;;;2.38;0.50;;;;;;;;;;5033054;28;20034;-66
2022/07/26 10:48:53;;;;;;;4.38;0.80;;;;;;;;;;5027743;28;20018;-67
2022/07/26 10:51:26;;;;;;;2.75;0.60;;;;;;;;;;5013314;28;20584;-67
2022/07/26 10:54:02;;;;;;;3.50;0.70;;;;;;;;;;5022517;28;20478;-67
2022/07/26 10:56:28;;;;;;;3.15;0.57;;;;;;;;;;5031098;28;20091;-68
2022/07/26 10:58:53;;;;;;;2.90;0.75;;;;;;;;;;5031141;28;20021;-68
2022/07/26 11:01:19;;;;;;;3.97;0.90;;;;;;;;;;5033582;28;20048;-67
2022/07/26 11:03:45;;;;;;;2.90;0.70;;;;;;;;;;5032625;28;20469;-66
2022/07/26 11:06:14;;;;;;;6.15;0.98;;;;;;;;;;5031902;28;20087;-66
2022/07/26 11:08:39;;;;;;;4.40;1.08;;;;;;;;;;5031467;28;20064;-66
2022/07/26 11:11:05;;;;;;;5.03;1.00;;;;;;;;;;5032661;28;20021;-67
2022/07/26 11:13:31;;;;;;;5.75;0.90;;;;;;;;;;5032073;28;20032;-67
2022/07/26 11:16:00;;;;;;;4.95;0.95;;;;;;;;;;5032406;28;20055;-67
2022/07/26 11:18:29;;;;;;;5.05;1.00;;;;;;;;;;5031871;28;20029;-67
2022/07/26 11:20:55;;;;;;;6.30;1.00;;;;;;;;;;5032254;28;20021;-67
2022/07/26 11:23:31;;;;;;;4.15;0.85;;;;;;;;;;5031703;28;20111;-67
2022/07/26 11:26:07;;;;;;;5.65;0.90;;;;;;;;;;5032680;28;20489;-67
2022/07/26 11:29:01;;;;;;;6.40;1.00;;;;;;;;;;5032136;28;20025;-67
2022/07/26 11:31:39;;;;;;;4.95;1.00;;;;;;;;;;5031356;28;20026;-66
2022/07/26 11:34:05;;;;;;;3.35;0.70;;;;;;;;;;5032019;28;20036;-67
2022/07/26 11:36:31;;;;;;;3.80;0.80;;;;;;;;;;5032343;28;20383;-67
2022/07/26 11:38:57;;;;;;;5.50;0.90;;;;;;;;;;5026557;28;20039;-67
2022/07/26 11:41:23;;;;;;;4.20;0.80;;;;;;;;;;5030873;28;20108;-67
2022/07/26 11:43:49;;;;;;;4.30;0.75;;;;;;;;;;5030376;28;20021;-67
2022/07/26 11:46:15;;;;;;;6.20;0.82;;;;;;;;;;5042887;28;20017;-66
2022/07/26 11:48:46;;;;;;;5.88;0.80;;;;;;;;;;5033380;28;20032;-66
2022/07/26 11:51:15;;;;;;;3.53;0.70;;;;;;;;;;5034689;28;20028;-67
2022/07/26 11:53:41;;;;;;;5.50;0.95;;;;;;;;;;5029453;28;20037;-67
2022/07/26 11:56:10;;;;;;;4.45;0.70;;;;;;;;;;5031257;28;20022;-66
2022/07/26 11:58:35;;;;;;;9.90;1.10;;;;;;;;;;5031048;28;20103;-67
2022/07/26 12:01:01;;;;;;;3.55;0.80;;;;;;;;;;5029239;28;20022;-66
2022/07/26 12:03:26;;;;;;;6.15;1.48;;;;;;;;;;5033069;28;20013;-66
2022/07/26 12:06:02;;;;;;;4.13;0.80;;;;;;;;;;5029847;28;20022;-66
2022/07/26 12:08:37;;;;;;;3.60;0.70;;;;;;;;;;5030459;28;20029;-67
2022/07/26 12:11:03;;;;;;;3.75;0.80;;;;;;;;;;5030806;28;20057;-67
2022/07/26 12:13:28;;;;;;;3.88;0.73;;;;;;;;;;5032661;28;20057;-67
2022/07/26 12:15:53;;;;;;;4.05;0.90;;;;;;;;;;5030067;28;20033;-67
2022/07/26 12:18:22;;;;;;;4.43;0.90;;;;;;;;;;5034270;28;20029;-67
2022/07/26 12:21:01;;;;;;;7.78;1.20;;;;;;;;;;5031572;28;20021;-67
2022/07/26 12:23:38;;;;;;;3.22;1.02;;;;;;;;;;5029977;28;20024;-67
2022/07/26 12:26:23;;;;;;;7.80;1.30;;;;;;;;;;5025273;28;20024;-67
2022/07/26 12:28:48;;;;;;;3.72;0.77;;;;;;;;;;5032101;28;20485;-67
2022/07/26 12:31:20;;;;;;;4.82;0.73;;;;;;;;;;5030935;28;20021;-67
2022/07/26 12:33:46;;;;;;;5.28;0.90;;;;;;;;;;5031033;28;20354;-67
2022/07/26 12:36:21;;;;;;;6.50;1.00;;;;;;;;;;5031624;28;20025;-67
2022/07/26 12:38:46;;;;;;;5.10;0.80;;;;;;;;;;5031735;28;20100;-67
2022/07/26 12:41:11;;;;;;;3.13;0.70;;;;;;;;;;5028621;28;20112;-67
2022/07/26 12:43:40;;;;;;;4.93;0.88;;;;;;;;;;5025643;28;20105;-66
2022/07/26 12:46:05;;;;;;;4.40;0.95;;;;;;;;;;5029432;28;20100;-67
2022/07/26 12:48:30;;;;;;;4.95;1.15;;;;;;;;;;5030559;28;20093;-67
2022/07/26 12:50:56;;;;;;;6.22;0.85;;;;;;;;;;5030148;28;20040;-67
2022/07/26 12:53:22;;;;;;;4.15;0.93;;;;;;;;;;5031118;28;20034;-67
2022/07/26 12:55:47;;;;;;;4.97;0.98;;;;;;;;;;5028831;28;20025;-66
2022/07/26 12:58:12;;;;;;;4.50;1.15;;;;;;;;;;5031110;28;20021;-67
2022/07/26 13:00:37;;;;;;;4.90;1.27;;;;;;;;;;5034714;28;20053;-67
2022/07/26 13:03:03;;;;;;;6.13;1.17;;;;;;;;;;5034213;28;20029;-67
2022/07/26 13:05:30;;;;;;;7.35;1.20;;;;;;;;;;5032972;28;20108;-67
2022/07/26 13:07:55;;;;;;;3.50;0.90;;;;;;;;;;5031906;28;20098;-67
2022/07/26 13:10:20;;;;;;;7.22;1.02;;;;;;;;;;5030434;28;20458;-66
2022/07/26 13:12:46;;;;;;;5.72;1.13;;;;;;;;;;5029963;28;20033;-67
2022/07/26 13:15:11;;;;;;;7.55;1.48;;;;;;;;;;5030630;28;20493;-67
2022/07/26 13:17:36;;;;;;;7.88;1.10;;;;;;;;;;5029853;28;20067;-67
2022/07/26 13:20:01;;;;;;;8.25;1.50;;;;;;;;;;5033345;28;20033;-67
2022/07/26 13:22:26;;;;;;;7.25;1.20;;;;;;;;;;5031729;28;20025;-67
2022/07/26 13:24:52;;;;;;;6.28;0.93;;;;;;;;;;5033729;28;20100;-66
2022/07/26 13:27:17;;;;;;;5.97;1.52;;;;;;;;;;5029450;28;20100;-67
2022/07/26 13:29:43;;;;;;;6.88;1.35;;;;;;;;;;5033720;28;20047;-66
2022/07/26 13:32:08;;;;;;;6.35;1.00;;;;;;;;;;5044599;28;20124;-66
2022/07/26 13:34:33;;;;;;;5.53;1.40;;;;;;;;;;5032042;28;20107;-66
2022/07/26 13:36:58;;;;;;;7.82;1.40;;;;;;;;;;5030069;28;20030;-67
2022/07/26 13:39:24;;;;;;;6.10;1.25;;;;;;;;;;5032104;28;20018;-66
2022/07/26 13:41:50;;;;;;;7.53;1.25;;;;;;;;;;5036445;28;20425;-67
2022/07/26 13:44:15;;;;;;;8.05;1.45;;;;;;;;;;5032779;28;20028;-67
2022/07/26 13:46:40;;;;;;;7.38;1.27;;;;;;;;;;5033998;28;20072;-67
2022/07/26 13:49:06;;;;;;;8.02;1.40;;;;;;;;;;5033969;28;20079;-67
2022/07/26 13:54:16;;;;;;;12.40;1.60;;;;;;;;;;5033250;28;20035;-66
2022/07/26 13:56:42;;;;;;;8.18;1.75;;;;;;;;;;5034009;28;20100;-67
2022/07/26 13:59:08;;;;;;;9.18;1.77;;;;;;;;;;5033540;28;20049;-67
2022/07/26 14:01:33;;;;;;;9.30;1.63;;;;;;;;;;5033676;28;20061;-67
2022/07/26 14:03:59;;;;;;;12.15;1.70;;;;;;;;;;5033350;28;20493;-66
2022/07/26 14:06:27;;;;;;;9.00;1.88;;;;;;;;;;5033534;28;20682;-66
2022/07/26 14:08:52;;;;;;;8.35;1.42;;;;;;;;;;5033524;28;20633;-67
2022/07/26 14:11:17;;;;;;;8.88;1.40;;;;;;;;;;5033866;28;20018;-66
2022/07/26 14:13:43;;;;;;;9.63;1.42;;;;;;;;;;5032848;28;20033;-67
2022/07/26 14:16:08;;;;;;;11.02;2.08;;;;;;;;;;5033443;28;20024;-66
2022/07/26 14:18:33;;;;;;;7.80;1.20;;;;;;;;;;5033033;28;20060;-67
2022/07/26 14:20:58;;;;;;;11.70;1.70;;;;;;;;;;5033616;28;20036;-66
2022/07/26 14:23:24;;;;;;;8.38;1.40;;;;;;;;;;5032701;28;20075;-67
2022/07/26 14:25:49;;;;;;;7.82;1.48;;;;;;;;;;5033279;28;20045;-67
2022/07/26 14:28:14;;;;;;;7.95;1.70;;;;;;;;;;5033142;28;20063;-67
2022/07/26 14:30:39;;;;;;;8.00;1.60;;;;;;;;;;5033536;28;20025;-67
2022/07/26 14:33:06;;;;;;;7.97;1.20;;;;;;;;;;5033175;28;20030;-67
2022/07/26 14:35:31;;;;;;;8.02;1.30;;;;;;;;;;5033346;28;20044;-67
2022/07/26 14:37:56;;;;;;;5.80;1.20;;;;;;;;;;5033199;28;20026;-67